createdAt,value
2019-05-18T00:01:50.388Z,56139.57
2019-05-18T00:04:21.418Z,56142.66
2019-05-18T00:06:52.260Z,56149.86
2019-05-18T00:09:22.793Z,56143.69
2019-05-18T00:11:52.728Z,56110.79
2019-05-18T00:14:23.572Z,56177.62
2019-05-18T00:16:54.145Z,56186.87
2019-05-18T00:19:24.726Z,56131.35
2019-05-18T00:21:55.228Z,56140.61
2019-05-18T00:24:25.508Z,56135.46
2019-05-18T00:26:55.757Z,56158.09
2019-05-18T00:29:26.407Z,56137.52
2019-05-18T00:31:57.215Z,56153.97
2019-05-18T00:34:27.388Z,56115.93
2019-05-18T00:36:57.578Z,56125.18
2019-05-18T00:39:27.944Z,56178.65
2019-05-18T00:41:58.548Z,56148.83
2019-05-18T00:44:28.876Z,56120.04
2019-05-18T00:46:58.932Z,56134.43
2019-05-18T00:49:29.678Z,56119.01
2019-05-18T00:52:00.293Z,56104.62
2019-05-18T00:54:30.887Z,56121.07
2019-05-18T00:57:01.233Z,56126.21
2019-05-18T00:59:31.907Z,56091.25
2019-05-18T01:02:02.388Z,56098.45
2019-05-18T01:04:32.840Z,56126.21
2019-05-18T01:07:03.815Z,56124.15
2019-05-18T01:09:34.854Z,56110.79
2019-05-18T01:12:05.217Z,56112.84
2019-05-18T01:14:35.851Z,56129.29
2019-05-18T01:17:06.010Z,56132.38
2019-05-18T01:19:36.330Z,56113.87
2019-05-18T01:22:06.698Z,56106.67
2019-05-18T01:24:37.531Z,56144.71
2019-05-18T01:27:07.616Z,56123.12
2019-05-18T01:29:38.516Z,56126.21
2019-05-18T01:32:08.595Z,56103.59
2019-05-18T01:34:38.800Z,56128.27
2019-05-18T01:37:09.364Z,56130.32
2019-05-18T01:39:39.902Z,56129.29
2019-05-18T01:42:09.934Z,56119.01
2019-05-18T01:44:40.144Z,56130.32
2019-05-18T01:47:10.380Z,56139.57
2019-05-18T01:49:41.013Z,56114.90
2019-05-18T01:52:11.633Z,56116.95
2019-05-18T01:54:41.949Z,56112.84
2019-05-18T01:57:12.541Z,56117.98
2019-05-18T01:59:43.677Z,56159.11
2019-05-18T02:02:14.049Z,56112.84
2019-05-18T02:04:44.697Z,56127.23
2019-05-18T02:07:15.543Z,56096.39
2019-05-18T02:09:45.717Z,56125.18
2019-05-18T02:12:15.995Z,56108.73
2019-05-18T02:14:46.309Z,56117.98
2019-05-18T02:17:16.917Z,56094.33
2019-05-18T02:19:47.230Z,56128.27
2019-05-18T02:22:17.885Z,56117.98
2019-05-18T02:24:48.439Z,56122.09
2019-05-18T02:27:18.349Z,56112.84
2019-05-18T02:29:49.250Z,56103.59
2019-05-18T02:32:19.443Z,56112.84
2019-05-18T02:34:50.329Z,56107.70
2019-05-18T02:37:20.861Z,56096.39
2019-05-18T02:39:55.207Z,56104.62
2019-05-18T02:42:25.814Z,56122.09
2019-05-18T02:44:56.866Z,56097.42
2019-05-18T02:47:27.458Z,56096.39
2019-05-18T02:49:57.804Z,56111.81
2019-05-18T02:52:28.329Z,56091.25
2019-05-18T02:54:58.641Z,56082.00
2019-05-18T02:57:29.293Z,56100.50
2019-05-18T02:59:59.647Z,56087.14
2019-05-18T03:02:30.355Z,56104.62
2019-05-18T03:05:00.332Z,56099.47
2019-05-18T03:07:30.469Z,56067.60
2019-05-18T03:10:00.686Z,56084.05
2019-05-18T03:12:31.445Z,56069.65
2019-05-18T03:15:01.841Z,56064.51
2019-05-18T03:17:32.694Z,56069.65
2019-05-18T03:20:03.047Z,56084.05
2019-05-18T03:22:33.274Z,56075.82
2019-05-18T03:25:03.516Z,56104.62
2019-05-18T03:27:34.287Z,56060.40
2019-05-18T03:30:04.940Z,56086.11
2019-05-18T03:32:36.142Z,56093.30
2019-05-18T03:35:06.487Z,56072.74
2019-05-18T03:37:36.819Z,56057.32
2019-05-18T03:40:08.089Z,56077.88
2019-05-18T03:42:38.111Z,56063.48
2019-05-18T03:45:09.354Z,56077.88
2019-05-18T03:47:39.536Z,56054.23
2019-05-18T03:50:10.611Z,56061.43
2019-05-18T03:52:41.138Z,56069.65
2019-05-18T03:55:11.131Z,56057.32
2019-05-18T03:57:42.067Z,56080.96
2019-05-18T04:00:12.879Z,56053.20
2019-05-18T04:02:43.652Z,56055.26
2019-05-18T04:05:13.818Z,56088.16
2019-05-18T04:07:44.943Z,56057.32
2019-05-18T04:10:15.861Z,56035.72
2019-05-18T04:12:45.847Z,56062.46
2019-05-18T04:15:15.886Z,56074.80
2019-05-18T04:17:45.815Z,56071.71
2019-05-18T04:20:17.344Z,56070.68
2019-05-18T04:22:47.622Z,56061.43
2019-05-18T04:25:18.123Z,56053.20
2019-05-18T04:27:48.024Z,56028.52
2019-05-18T04:30:19.062Z,56050.12
2019-05-18T04:32:49.908Z,56084.05
2019-05-18T04:35:20.524Z,56062.46
2019-05-18T04:37:50.777Z,56071.71
2019-05-18T04:40:21.126Z,56024.41
2019-05-18T04:42:51.620Z,56057.32
2019-05-18T04:45:21.643Z,56071.71
2019-05-18T04:47:51.941Z,56053.20
2019-05-18T04:50:22.145Z,56030.58
2019-05-18T04:52:52.594Z,56071.71
2019-05-18T04:55:22.927Z,56007.96
2019-05-18T04:57:53.172Z,56055.26
2019-05-18T05:00:23.178Z,56028.52
2019-05-18T05:02:53.089Z,56049.09
2019-05-18T05:05:23.073Z,56051.14
2019-05-18T05:07:53.538Z,56053.20
2019-05-18T05:10:23.862Z,56029.55
2019-05-18T05:12:54.209Z,56043.95
2019-05-18T05:15:24.602Z,56036.75
2019-05-18T05:17:54.555Z,56053.20
2019-05-18T05:20:24.492Z,56027.50
2019-05-18T05:22:54.411Z,56056.29
2019-05-18T05:25:24.678Z,56049.09
2019-05-18T05:27:55.187Z,56049.09
2019-05-18T05:30:25.439Z,56044.98
2019-05-18T05:32:56.279Z,56037.78
2019-05-18T05:35:26.799Z,56063.48
2019-05-18T05:37:57.322Z,56029.55
2019-05-18T05:40:28.458Z,56047.03
2019-05-18T05:42:59.312Z,56028.52
2019-05-18T05:45:29.259Z,56059.37
2019-05-18T05:47:59.220Z,56019.27
2019-05-18T05:50:35.963Z,55991.51
2019-05-18T05:53:00.893Z,56039.84
2019-05-18T05:55:31.233Z,55982.25
2019-05-18T05:58:01.836Z,55909.25
2019-05-18T06:00:32.069Z,55845.50
2019-05-18T06:03:02.301Z,55857.84
2019-05-18T06:05:32.840Z,55872.24
2019-05-18T06:08:03.475Z,55870.18
2019-05-18T06:10:33.365Z,55824.94
2019-05-18T06:13:04.159Z,55800.27
2019-05-18T06:15:34.399Z,55837.28
2019-05-18T06:18:04.966Z,55780.73
2019-05-18T06:20:50.114Z,55802.32
2019-05-18T06:23:08.076Z,55770.45
2019-05-18T06:25:38.395Z,55813.63
2019-05-18T06:28:08.374Z,55801.29
2019-05-18T06:30:38.661Z,55827.00
2019-05-18T06:33:08.972Z,55805.41
2019-05-18T06:35:39.489Z,55811.57
2019-05-18T06:38:10.016Z,55944.21
2019-05-18T06:40:40.247Z,56040.86
2019-05-18T06:43:10.466Z,56102.56
2019-05-18T06:45:40.397Z,56089.19
2019-05-18T06:48:10.536Z,56139.57
2019-05-18T06:50:40.746Z,56133.41
2019-05-18T06:53:10.923Z,56143.69
2019-05-18T06:55:41.773Z,56125.18
2019-05-18T06:58:12.841Z,56153.97
2019-05-18T07:00:43.144Z,56134.43
2019-05-18T07:03:14.060Z,56181.73
2019-05-18T07:05:44.633Z,56139.57
2019-05-18T07:08:14.597Z,56158.09
2019-05-18T07:10:44.568Z,56127.23
2019-05-18T07:13:14.952Z,56156.03
2019-05-18T07:15:46.127Z,56141.63
2019-05-18T07:18:16.746Z,56108.73
2019-05-18T07:20:47.287Z,56137.52
2019-05-18T07:23:17.365Z,56112.84
2019-05-18T07:25:47.285Z,56117.98
2019-05-18T07:28:17.640Z,56142.66
2019-05-18T07:30:48.456Z,56100.50
2019-05-18T07:33:19.488Z,56126.21
2019-05-18T07:35:50.455Z,56127.23
2019-05-18T07:38:20.685Z,56123.12
2019-05-18T07:40:51.199Z,56147.80
2019-05-18T07:43:21.473Z,56121.07
2019-05-18T07:45:52.264Z,56147.80
2019-05-18T07:48:22.833Z,56106.67
2019-05-18T07:50:53.534Z,56122.09
2019-05-18T07:53:23.535Z,56094.33
2019-05-18T07:55:53.848Z,56111.81
2019-05-18T07:58:24.489Z,56122.09
2019-05-18T08:00:54.896Z,56125.18
2019-05-18T08:03:25.667Z,56111.81
2019-05-18T08:05:56.445Z,56100.50
2019-05-18T08:08:26.976Z,56114.90
2019-05-18T08:10:57.761Z,56126.21
2019-05-18T08:13:28.588Z,56071.71
2019-05-18T08:15:59.239Z,56083.02
2019-05-18T08:18:30.048Z,56100.50
2019-05-18T08:21:00.966Z,56116.95
2019-05-18T08:23:31.937Z,56061.43
2019-05-18T08:26:02.558Z,56067.60
2019-05-18T08:28:33.699Z,56034.70
2019-05-18T08:31:03.812Z,56066.57
2019-05-18T08:33:34.885Z,56071.71
2019-05-18T08:36:05.301Z,56044.98
2019-05-18T08:38:35.837Z,56075.82
2019-05-18T08:41:05.928Z,56060.40
2019-05-18T08:43:36.995Z,56041.89
2019-05-18T08:46:07.620Z,56033.67
2019-05-18T08:48:38.591Z,56075.82
2019-05-18T08:51:08.616Z,56031.61
2019-05-18T08:53:40.005Z,56042.92
2019-05-18T08:56:10.249Z,55978.14
2019-05-18T08:58:40.988Z,55920.56
2019-05-18T09:01:10.925Z,55896.91
2019-05-18T09:03:41.537Z,55870.18
2019-05-18T09:06:11.807Z,55872.24
2019-05-18T09:08:41.733Z,55851.68
2019-05-18T09:11:11.975Z,55829.05
2019-05-18T09:13:42.193Z,55847.56
2019-05-18T09:16:12.417Z,55874.29
2019-05-18T09:18:42.962Z,55854.76
2019-05-18T09:21:12.892Z,55864.01
2019-05-18T09:23:42.919Z,55828.02
2019-05-18T09:26:13.714Z,55818.77
2019-05-18T09:28:43.694Z,55820.83
2019-05-18T09:31:13.686Z,55815.69
2019-05-18T09:33:44.003Z,55857.84
2019-05-18T09:36:13.934Z,55859.90
2019-05-18T09:38:44.217Z,55879.43
2019-05-18T09:41:14.730Z,55880.46
2019-05-18T09:43:44.723Z,55909.25
2019-05-18T09:46:15.636Z,55875.32
2019-05-18T09:48:45.788Z,55845.50
2019-05-18T09:51:16.074Z,55901.03
2019-05-18T09:53:51.629Z,55851.68
2019-05-18T09:56:18.946Z,55839.34
2019-05-18T09:58:49.466Z,55882.52
2019-05-18T10:01:19.793Z,55942.16
2019-05-18T10:03:50.547Z,55890.75
2019-05-18T10:06:20.845Z,55892.80
2019-05-18T10:08:51.127Z,55855.79
2019-05-18T10:11:21.102Z,55900.00
2019-05-18T10:13:51.288Z,55922.62
2019-05-18T10:16:21.847Z,55893.83
2019-05-18T10:18:51.764Z,55952.44
2019-05-18T10:21:22.361Z,55935.98
2019-05-18T10:23:52.339Z,55938.04
2019-05-18T10:26:22.280Z,55969.92
2019-05-18T10:28:52.542Z,55968.89
2019-05-18T10:31:23.070Z,55995.62
2019-05-18T10:33:53.708Z,56024.41
2019-05-18T10:36:24.354Z,56019.27
2019-05-18T10:38:55.141Z,56017.21
2019-05-18T10:41:25.375Z,56037.78
2019-05-18T10:43:56.643Z,56029.55
2019-05-18T10:46:27.273Z,56015.16
2019-05-18T10:48:57.613Z,55989.45
2019-05-18T10:51:27.844Z,56010.02
2019-05-18T10:53:58.041Z,56015.16
2019-05-18T10:56:31.201Z,56021.33
2019-05-18T10:59:02.085Z,56029.55
2019-05-18T11:01:32.139Z,56015.16
2019-05-18T11:04:02.562Z,56031.61
2019-05-18T11:06:32.862Z,55996.65
2019-05-18T11:09:02.885Z,56033.67
2019-05-18T11:11:33.907Z,56032.64
2019-05-18T11:14:05.063Z,56028.52
2019-05-18T11:16:35.583Z,56049.09
2019-05-18T11:19:09.551Z,56030.58
2019-05-18T11:21:40.291Z,56013.10
2019-05-18T11:24:10.309Z,55970.95
2019-05-18T11:26:40.675Z,56042.92
2019-05-18T11:29:11.215Z,56005.90
2019-05-18T11:31:41.764Z,56044.98
2019-05-18T11:34:12.353Z,56035.72
2019-05-18T11:36:43.304Z,56003.85
2019-05-18T11:39:14.133Z,56027.50
2019-05-18T11:41:44.637Z,56001.79
2019-05-18T11:44:14.562Z,56014.13
2019-05-18T11:46:44.484Z,56032.64
2019-05-18T11:49:14.423Z,56032.64
2019-05-18T11:51:44.735Z,55984.31
2019-05-18T11:54:15.001Z,56003.85
2019-05-18T11:56:46.900Z,56013.10
2019-05-18T11:59:16.877Z,56018.24
2019-05-18T12:01:46.872Z,56019.27
2019-05-18T12:04:17.194Z,55986.37
2019-05-18T12:06:47.402Z,55999.73
2019-05-18T12:09:17.578Z,55993.57
2019-05-18T12:11:47.505Z,55993.57
2019-05-18T12:14:17.733Z,56040.86
2019-05-18T12:16:48.068Z,55995.62
2019-05-18T12:19:18.298Z,55974.03
2019-05-18T12:21:49.139Z,55976.09
2019-05-18T12:24:19.553Z,56032.64
2019-05-18T12:26:50.092Z,56003.85
2019-05-18T12:29:20.732Z,56049.09
2019-05-18T12:31:51.336Z,56010.02
2019-05-18T12:34:22.173Z,56015.16
2019-05-18T12:36:52.831Z,56022.36
2019-05-18T12:39:22.823Z,56016.19
2019-05-18T12:41:53.681Z,55993.57
2019-05-18T12:44:24.048Z,55985.34
2019-05-18T12:46:54.463Z,55991.51
2019-05-18T12:49:25.056Z,55997.68
2019-05-18T12:51:55.678Z,55977.11
2019-05-18T12:54:30.858Z,55991.51
2019-05-18T12:56:57.683Z,55996.65
2019-05-18T12:59:27.972Z,55954.49
2019-05-18T13:01:58.604Z,55965.80
2019-05-18T13:04:28.862Z,55966.83
2019-05-18T13:06:59.602Z,55960.66
2019-05-18T13:09:30.104Z,55946.27
2019-05-18T13:12:01.181Z,55987.40
2019-05-18T13:14:32.070Z,55951.41
2019-05-18T13:17:02.925Z,55952.44
2019-05-18T13:19:33.449Z,55968.89
2019-05-18T13:22:03.810Z,55991.51
2019-05-18T13:24:44.775Z,55959.63
2019-05-18T13:27:05.436Z,55967.86
2019-05-18T13:29:35.801Z,55935.98
2019-05-18T13:32:06.403Z,55950.38
2019-05-18T13:34:37.247Z,55953.46
2019-05-18T13:37:07.256Z,55927.76
2019-05-18T13:39:37.511Z,55946.27
2019-05-18T13:42:07.939Z,55970.95
2019-05-18T13:44:38.345Z,55924.68
2019-05-18T13:47:08.597Z,55976.09
2019-05-18T13:49:39.196Z,55961.69
2019-05-18T13:52:09.842Z,55956.55
2019-05-18T13:54:40.256Z,55953.46
2019-05-18T13:57:10.565Z,55959.63
2019-05-18T13:59:41.401Z,55931.87
2019-05-18T14:02:11.745Z,55964.78
2019-05-18T14:04:42.691Z,55928.79
2019-05-18T14:07:12.689Z,55987.40
2019-05-18T14:09:43.046Z,55955.52
2019-05-18T14:12:13.786Z,55973.00
2019-05-18T14:14:44.636Z,55983.28
2019-05-18T14:17:15.849Z,55965.80
2019-05-18T14:19:46.624Z,55932.90
